sensor_id;sensor_type;location;lat;lon;timestamp;P1;durP1;ratioP1;P2;durP2;ratioP2
81026;SDS011;70506;49.320;8.446;2023-06-19T00:00:33;10.20;;;4.75;;
81026;SDS011;70506;49.320;8.446;2023-06-19T00:02:58;8.27;;;5.30;;
81026;SDS011;70506;49.320;8.446;2023-06-19T00:05:24;8.05;;;4.93;;
81026;SDS011;70506;49.320;8.446;2023-06-19T00:07:50;8.05;;;5.05;;
81026;SDS011;70506;49.320;8.446;2023-06-19T00:10:15;7.85;;;5.00;;
81026;SDS011;70506;49.320;8.446;2023-06-19T00:12:41;8.30;;;5.40;;
81026;SDS011;70506;49.320;8.446;2023-06-19T00:15:06;7.07;;;5.30;;
81026;SDS011;70506;49.320;8.446;2023-06-19T00:17:34;7.50;;;5.28;;
81026;SDS011;70506;49.320;8.446;2023-06-19T00:20:02;7.05;;;5.15;;
81026;SDS011;70506;49.320;8.446;2023-06-19T00:22:28;7.18;;;4.97;;
81026;SDS011;70506;49.320;8.446;2023-06-19T00:24:53;8.17;;;5.03;;
81026;SDS011;70506;49.320;8.446;2023-06-19T00:27:18;6.83;;;5.27;;
81026;SDS011;70506;49.320;8.446;2023-06-19T00:29:44;8.15;;;5.40;;
81026;SDS011;70506;49.320;8.446;2023-06-19T00:32:09;8.20;;;5.20;;
81026;SDS011;70506;49.320;8.446;2023-06-19T00:34:34;7.10;;;5.23;;
81026;SDS011;70506;49.320;8.446;2023-06-19T00:37:02;8.35;;;5.68;;
81026;SDS011;70506;49.320;8.446;2023-06-19T00:39:27;8.15;;;5.18;;
81026;SDS011;70506;49.320;8.446;2023-06-19T00:41:53;9.98;;;5.90;;
81026;SDS011;70506;49.320;8.446;2023-06-19T00:44:22;8.80;;;5.32;;
81026;SDS011;70506;49.320;8.446;2023-06-19T00:46:49;7.85;;;5.80;;
81026;SDS011;70506;49.320;8.446;2023-06-19T00:49:16;9.48;;;5.68;;
81026;SDS011;70506;49.320;8.446;2023-06-19T00:51:41;7.97;;;5.50;;
81026;SDS011;70506;49.320;8.446;2023-06-19T00:54:07;6.90;;;5.47;;
81026;SDS011;70506;49.320;8.446;2023-06-19T00:56:32;8.00;;;5.90;;
81026;SDS011;70506;49.320;8.446;2023-06-19T00:58:59;7.82;;;5.13;;
81026;SDS011;70506;49.320;8.446;2023-06-19T01:01:25;9.38;;;5.40;;
81026;SDS011;70506;49.320;8.446;2023-06-19T01:03:52;6.80;;;5.32;;
81026;SDS011;70506;49.320;8.446;2023-06-19T01:06:20;6.60;;;4.80;;
81026;SDS011;70506;49.320;8.446;2023-06-19T01:08:51;7.00;;;5.10;;
81026;SDS011;70506;49.320;8.446;2023-06-19T01:11:25;7.43;;;4.90;;
81026;SDS011;70506;49.320;8.446;2023-06-19T01:13:55;9.82;;;5.30;;
81026;SDS011;70506;49.320;8.446;2023-06-19T01:16:24;7.80;;;5.22;;
81026;SDS011;70506;49.320;8.446;2023-06-19T01:18:50;9.35;;;4.47;;
81026;SDS011;70506;49.320;8.446;2023-06-19T01:21:16;14.88;;;4.75;;
81026;SDS011;70506;49.320;8.446;2023-06-19T01:23:42;9.80;;;5.32;;
81026;SDS011;70506;49.320;8.446;2023-06-19T01:26:08;11.38;;;4.40;;
81026;SDS011;70506;49.320;8.446;2023-06-19T01:28:34;7.57;;;5.22;;
81026;SDS011;70506;49.320;8.446;2023-06-19T01:31:02;7.40;;;4.68;;
81026;SDS011;70506;49.320;8.446;2023-06-19T01:33:29;6.78;;;4.75;;
81026;SDS011;70506;49.320;8.446;2023-06-19T01:35:56;6.93;;;5.00;;
81026;SDS011;70506;49.320;8.446;2023-06-19T01:38:23;7.65;;;5.40;;
81026;SDS011;70506;49.320;8.446;2023-06-19T01:40:52;8.57;;;4.97;;
81026;SDS011;70506;49.320;8.446;2023-06-19T01:43:18;9.77;;;5.20;;
81026;SDS011;70506;49.320;8.446;2023-06-19T01:45:44;7.13;;;4.60;;
81026;SDS011;70506;49.320;8.446;2023-06-19T01:48:10;8.90;;;4.50;;
81026;SDS011;70506;49.320;8.446;2023-06-19T01:50:35;8.43;;;4.73;;
81026;SDS011;70506;49.320;8.446;2023-06-19T01:53:00;6.50;;;5.00;;
81026;SDS011;70506;49.320;8.446;2023-06-19T01:55:26;6.05;;;4.40;;
81026;SDS011;70506;49.320;8.446;2023-06-19T01:57:51;8.65;;;4.53;;
81026;SDS011;70506;49.320;8.446;2023-06-19T02:00:16;5.35;;;3.65;;
81026;SDS011;70506;49.320;8.446;2023-06-19T02:02:42;8.60;;;3.85;;
81026;SDS011;70506;49.320;8.446;2023-06-19T02:05:08;6.82;;;4.05;;
81026;SDS011;70506;49.320;8.446;2023-06-19T02:07:33;5.25;;;3.22;;
81026;SDS011;70506;49.320;8.446;2023-06-19T02:09:59;4.77;;;2.93;;
81026;SDS011;70506;49.320;8.446;2023-06-19T02:12:24;5.28;;;3.70;;
81026;SDS011;70506;49.320;8.446;2023-06-19T02:14:49;4.87;;;3.00;;
81026;SDS011;70506;49.320;8.446;2023-06-19T02:17:14;5.53;;;3.43;;
81026;SDS011;70506;49.320;8.446;2023-06-19T02:19:40;5.82;;;3.22;;
81026;SDS011;70506;49.320;8.446;2023-06-19T02:22:05;4.30;;;3.40;;
81026;SDS011;70506;49.320;8.446;2023-06-19T02:24:31;5.45;;;4.22;;
81026;SDS011;70506;49.320;8.446;2023-06-19T02:26:56;7.75;;;3.80;;
81026;SDS011;70506;49.320;8.446;2023-06-19T02:29:22;5.43;;;3.50;;
81026;SDS011;70506;49.320;8.446;2023-06-19T02:31:47;4.85;;;3.83;;
81026;SDS011;70506;49.320;8.446;2023-06-19T02:34:12;4.63;;;3.78;;
81026;SDS011;70506;49.320;8.446;2023-06-19T02:36:38;6.05;;;3.67;;
81026;SDS011;70506;49.320;8.446;2023-06-19T02:39:04;4.80;;;3.30;;
81026;SDS011;70506;49.320;8.446;2023-06-19T02:41:31;6.05;;;3.05;;
81026;SDS011;70506;49.320;8.446;2023-06-19T02:43:56;5.45;;;2.67;;
81026;SDS011;70506;49.320;8.446;2023-06-19T02:46:21;4.10;;;2.78;;
81026;SDS011;70506;49.320;8.446;2023-06-19T02:48:47;4.45;;;2.83;;
81026;SDS011;70506;49.320;8.446;2023-06-19T02:51:12;5.57;;;2.77;;
81026;SDS011;70506;49.320;8.446;2023-06-19T02:53:37;3.93;;;2.57;;
81026;SDS011;70506;49.320;8.446;2023-06-19T02:56:03;4.37;;;2.63;;
81026;SDS011;70506;49.320;8.446;2023-06-19T03:00:54;3.90;;;2.10;;
81026;SDS011;70506;49.320;8.446;2023-06-19T03:03:19;2.70;;;2.00;;
81026;SDS011;70506;49.320;8.446;2023-06-19T03:08:10;3.37;;;2.20;;
81026;SDS011;70506;49.320;8.446;2023-06-19T03:13:00;2.97;;;2.17;;
81026;SDS011;70506;49.320;8.446;2023-06-19T03:17:52;4.07;;;2.40;;
81026;SDS011;70506;49.320;8.446;2023-06-19T03:20:18;6.35;;;2.38;;
81026;SDS011;70506;49.320;8.446;2023-06-19T03:25:08;4.50;;;2.33;;
81026;SDS011;70506;49.320;8.446;2023-06-19T03:29:59;4.47;;;2.22;;
81026;SDS011;70506;49.320;8.446;2023-06-19T03:34:50;5.18;;;2.30;;
81026;SDS011;70506;49.320;8.446;2023-06-19T03:39:41;3.83;;;2.70;;
81026;SDS011;70506;49.320;8.446;2023-06-19T03:44:32;5.93;;;2.70;;
81026;SDS011;70506;49.320;8.446;2023-06-19T03:49:22;3.30;;;2.43;;
81026;SDS011;70506;49.320;8.446;2023-06-19T03:54:13;3.73;;;2.70;;
81026;SDS011;70506;49.320;8.446;2023-06-19T03:56:38;5.47;;;2.83;;
81026;SDS011;70506;49.320;8.446;2023-06-19T04:01:29;4.67;;;3.03;;
81026;SDS011;70506;49.320;8.446;2023-06-19T04:06:19;4.20;;;2.87;;
81026;SDS011;70506;49.320;8.446;2023-06-19T04:08:46;4.82;;;2.90;;
81026;SDS011;70506;49.320;8.446;2023-06-19T04:13:36;5.33;;;2.60;;
81026;SDS011;70506;49.320;8.446;2023-06-19T04:18:27;3.10;;;2.43;;
81026;SDS011;70506;49.320;8.446;2023-06-19T04:20:53;8.93;;;3.25;;
81026;SDS011;70506;49.320;8.446;2023-06-19T04:23:18;4.33;;;2.83;;
81026;SDS011;70506;49.320;8.446;2023-06-19T04:28:09;5.00;;;2.80;;
81026;SDS011;70506;49.320;8.446;2023-06-19T04:30:34;6.90;;;3.10;;
81026;SDS011;70506;49.320;8.446;2023-06-19T04:32:59;4.10;;;3.00;;
81026;SDS011;70506;49.320;8.446;2023-06-19T04:35:25;5.95;;;2.72;;
81026;SDS011;70506;49.320;8.446;2023-06-19T04:37:50;5.00;;;3.20;;
81026;SDS011;70506;49.320;8.446;2023-06-19T04:40:16;5.13;;;2.75;;
81026;SDS011;70506;49.320;8.446;2023-06-19T04:42:41;4.60;;;2.60;;
81026;SDS011;70506;49.320;8.446;2023-06-19T04:45:06;3.80;;;2.50;;
81026;SDS011;70506;49.320;8.446;2023-06-19T04:47:32;4.72;;;2.50;;
81026;SDS011;70506;49.320;8.446;2023-06-19T04:49:58;4.53;;;2.30;;
81026;SDS011;70506;49.320;8.446;2023-06-19T04:52:24;7.35;;;2.70;;
81026;SDS011;70506;49.320;8.446;2023-06-19T04:57:15;4.10;;;2.40;;
81026;SDS011;70506;49.320;8.446;2023-06-19T05:02:06;4.78;;;2.47;;
81026;SDS011;70506;49.320;8.446;2023-06-19T05:04:32;3.80;;;2.67;;
81026;SDS011;70506;49.320;8.446;2023-06-19T05:09:23;4.93;;;2.22;;
81026;SDS011;70506;49.320;8.446;2023-06-19T05:11:48;4.17;;;2.63;;
81026;SDS011;70506;49.320;8.446;2023-06-19T05:14:13;4.03;;;2.40;;
81026;SDS011;70506;49.320;8.446;2023-06-19T05:16:39;3.65;;;2.20;;
81026;SDS011;70506;49.320;8.446;2023-06-19T05:19:04;3.50;;;2.42;;
81026;SDS011;70506;49.320;8.446;2023-06-19T05:21:30;3.38;;;2.50;;
81026;SDS011;70506;49.320;8.446;2023-06-19T05:23:55;3.30;;;2.27;;
81026;SDS011;70506;49.320;8.446;2023-06-19T05:26:21;5.22;;;2.67;;
81026;SDS011;70506;49.320;8.446;2023-06-19T05:28:47;3.55;;;2.42;;
81026;SDS011;70506;49.320;8.446;2023-06-19T05:31:13;5.45;;;2.53;;
81026;SDS011;70506;49.320;8.446;2023-06-19T05:33:38;3.90;;;2.47;;
81026;SDS011;70506;49.320;8.446;2023-06-19T05:36:04;7.40;;;4.05;;
81026;SDS011;70506;49.320;8.446;2023-06-19T05:38:29;5.05;;;2.33;;
81026;SDS011;70506;49.320;8.446;2023-06-19T05:40:56;4.90;;;2.22;;
81026;SDS011;70506;49.320;8.446;2023-06-19T05:43:21;4.03;;;2.60;;
81026;SDS011;70506;49.320;8.446;2023-06-19T05:45:47;4.55;;;2.97;;
81026;SDS011;70506;49.320;8.446;2023-06-19T05:48:12;3.67;;;2.55;;
81026;SDS011;70506;49.320;8.446;2023-06-19T05:50:38;3.67;;;2.50;;
81026;SDS011;70506;49.320;8.446;2023-06-19T05:53:04;6.97;;;2.63;;
81026;SDS011;70506;49.320;8.446;2023-06-19T05:55:30;4.32;;;2.38;;
81026;SDS011;70506;49.320;8.446;2023-06-19T05:57:55;3.63;;;2.40;;
81026;SDS011;70506;49.320;8.446;2023-06-19T06:00:20;4.40;;;2.60;;
81026;SDS011;70506;49.320;8.446;2023-06-19T06:02:47;3.30;;;2.47;;
81026;SDS011;70506;49.320;8.446;2023-06-19T06:05:13;3.30;;;2.30;;
81026;SDS011;70506;49.320;8.446;2023-06-19T06:07:38;6.55;;;2.65;;
81026;SDS011;70506;49.320;8.446;2023-06-19T06:10:03;4.30;;;2.65;;
81026;SDS011;70506;49.320;8.446;2023-06-19T06:12:30;4.30;;;2.97;;
81026;SDS011;70506;49.320;8.446;2023-06-19T06:14:55;4.63;;;2.42;;
81026;SDS011;70506;49.320;8.446;2023-06-19T06:17:20;6.50;;;2.60;;
81026;SDS011;70506;49.320;8.446;2023-06-19T06:19:46;5.53;;;2.50;;
81026;SDS011;70506;49.320;8.446;2023-06-19T06:22:11;4.03;;;2.67;;
81026;SDS011;70506;49.320;8.446;2023-06-19T06:24:36;5.10;;;2.57;;
81026;SDS011;70506;49.320;8.446;2023-06-19T06:27:01;6.50;;;2.60;;
81026;SDS011;70506;49.320;8.446;2023-06-19T06:29:27;3.67;;;2.60;;
81026;SDS011;70506;49.320;8.446;2023-06-19T06:32:02;5.97;;;2.90;;
81026;SDS011;70506;49.320;8.446;2023-06-19T06:34:31;4.47;;;2.85;;
81026;SDS011;70506;49.320;8.446;2023-06-19T06:36:57;4.72;;;2.50;;
81026;SDS011;70506;49.320;8.446;2023-06-19T06:39:23;6.15;;;3.05;;
81026;SDS011;70506;49.320;8.446;2023-06-19T06:41:49;3.72;;;2.78;;
81026;SDS011;70506;49.320;8.446;2023-06-19T06:44:14;3.93;;;2.70;;
81026;SDS011;70506;49.320;8.446;2023-06-19T06:46:39;4.03;;;2.83;;
81026;SDS011;70506;49.320;8.446;2023-06-19T06:49:05;4.85;;;3.15;;
81026;SDS011;70506;49.320;8.446;2023-06-19T06:51:30;3.60;;;2.70;;
81026;SDS011;70506;49.320;8.446;2023-06-19T06:53:55;5.53;;;3.17;;
81026;SDS011;70506;49.320;8.446;2023-06-19T06:56:21;3.83;;;3.05;;
81026;SDS011;70506;49.320;8.446;2023-06-19T06:58:46;5.43;;;3.20;;
81026;SDS011;70506;49.320;8.446;2023-06-19T07:01:12;7.10;;;3.25;;
81026;SDS011;70506;49.320;8.446;2023-06-19T07:03:38;4.63;;;3.53;;
81026;SDS011;70506;49.320;8.446;2023-06-19T07:06:04;6.22;;;3.40;;
81026;SDS011;70506;49.320;8.446;2023-06-19T07:08:30;5.78;;;3.00;;
81026;SDS011;70506;49.320;8.446;2023-06-19T07:10:55;4.70;;;3.42;;
81026;SDS011;70506;49.320;8.446;2023-06-19T07:13:20;7.83;;;3.40;;
81026;SDS011;70506;49.320;8.446;2023-06-19T07:15:45;5.97;;;3.08;;
81026;SDS011;70506;49.320;8.446;2023-06-19T07:18:11;7.17;;;3.57;;
81026;SDS011;70506;49.320;8.446;2023-06-19T07:20:36;5.23;;;3.30;;
81026;SDS011;70506;49.320;8.446;2023-06-19T07:23:01;7.83;;;3.43;;
81026;SDS011;70506;49.320;8.446;2023-06-19T07:25:28;5.32;;;3.45;;
81026;SDS011;70506;49.320;8.446;2023-06-19T07:27:54;6.47;;;3.80;;
81026;SDS011;70506;49.320;8.446;2023-06-19T07:30:19;8.93;;;3.22;;
81026;SDS011;70506;49.320;8.446;2023-06-19T07:32:44;6.50;;;3.60;;
81026;SDS011;70506;49.320;8.446;2023-06-19T07:35:10;5.53;;;3.60;;
81026;SDS011;70506;49.320;8.446;2023-06-19T07:37:36;4.55;;;3.33;;
81026;SDS011;70506;49.320;8.446;2023-06-19T07:40:01;4.82;;;3.03;;
81026;SDS011;70506;49.320;8.446;2023-06-19T07:42:27;5.95;;;3.70;;
81026;SDS011;70506;49.320;8.446;2023-06-19T07:44:52;6.40;;;3.35;;
81026;SDS011;70506;49.320;8.446;2023-06-19T07:47:18;5.30;;;3.63;;
81026;SDS011;70506;49.320;8.446;2023-06-19T07:49:44;7.55;;;3.72;;
81026;SDS011;70506;49.320;8.446;2023-06-19T07:52:10;7.13;;;3.88;;
81026;SDS011;70506;49.320;8.446;2023-06-19T07:54:35;6.65;;;3.70;;
81026;SDS011;70506;49.320;8.446;2023-06-19T07:57:00;4.67;;;3.37;;
81026;SDS011;70506;49.320;8.446;2023-06-19T07:59:26;8.10;;;3.35;;
81026;SDS011;70506;49.320;8.446;2023-06-19T08:01:51;5.47;;;3.37;;
81026;SDS011;70506;49.320;8.446;2023-06-19T08:04:17;6.40;;;3.73;;
81026;SDS011;70506;49.320;8.446;2023-06-19T08:06:42;6.70;;;3.80;;
81026;SDS011;70506;49.320;8.446;2023-06-19T08:09:07;5.67;;;3.83;;
81026;SDS011;70506;49.320;8.446;2023-06-19T08:11:33;6.70;;;3.37;;
81026;SDS011;70506;49.320;8.446;2023-06-19T08:13:58;7.25;;;3.35;;
81026;SDS011;70506;49.320;8.446;2023-06-19T08:16:24;4.47;;;3.60;;
81026;SDS011;70506;49.320;8.446;2023-06-19T08:18:50;5.88;;;3.45;;
81026;SDS011;70506;49.320;8.446;2023-06-19T08:21:16;4.70;;;3.30;;
81026;SDS011;70506;49.320;8.446;2023-06-19T08:23:41;5.90;;;3.50;;
81026;SDS011;70506;49.320;8.446;2023-06-19T08:26:08;5.65;;;3.90;;
81026;SDS011;70506;49.320;8.446;2023-06-19T08:28:34;7.20;;;3.42;;
81026;SDS011;70506;49.320;8.446;2023-06-19T08:30:59;5.88;;;3.50;;
81026;SDS011;70506;49.320;8.446;2023-06-19T08:33:24;5.55;;;3.72;;
81026;SDS011;70506;49.320;8.446;2023-06-19T08:35:50;5.57;;;3.60;;
81026;SDS011;70506;49.320;8.446;2023-06-19T08:38:15;8.20;;;4.23;;
81026;SDS011;70506;49.320;8.446;2023-06-19T08:40:41;5.22;;;3.90;;
81026;SDS011;70506;49.320;8.446;2023-06-19T08:43:08;9.30;;;3.75;;
81026;SDS011;70506;49.320;8.446;2023-06-19T08:45:33;6.60;;;4.17;;
81026;SDS011;70506;49.320;8.446;2023-06-19T08:47:59;4.65;;;3.70;;
81026;SDS011;70506;49.320;8.446;2023-06-19T08:50:25;5.60;;;3.63;;
81026;SDS011;70506;49.320;8.446;2023-06-19T08:52:51;5.38;;;3.60;;
81026;SDS011;70506;49.320;8.446;2023-06-19T08:55:16;5.82;;;3.80;;
81026;SDS011;70506;49.320;8.446;2023-06-19T08:57:41;5.03;;;3.37;;
81026;SDS011;70506;49.320;8.446;2023-06-19T09:00:07;4.13;;;3.28;;
81026;SDS011;70506;49.320;8.446;2023-06-19T09:02:43;5.63;;;3.90;;
81026;SDS011;70506;49.320;8.446;2023-06-19T09:05:13;5.13;;;3.85;;
81026;SDS011;70506;49.320;8.446;2023-06-19T09:07:40;6.43;;;3.70;;
81026;SDS011;70506;49.320;8.446;2023-06-19T09:10:18;5.00;;;3.55;;
81026;SDS011;70506;49.320;8.446;2023-06-19T09:12:44;6.10;;;4.07;;
81026;SDS011;70506;49.320;8.446;2023-06-19T09:15:15;8.98;;;3.80;;
81026;SDS011;70506;49.320;8.446;2023-06-19T09:17:41;5.70;;;3.97;;
81026;SDS011;70506;49.320;8.446;2023-06-19T09:20:06;3.97;;;3.50;;
81026;SDS011;70506;49.320;8.446;2023-06-19T09:22:33;5.28;;;4.07;;
81026;SDS011;70506;49.320;8.446;2023-06-19T09:25:02;8.07;;;4.10;;
81026;SDS011;70506;49.320;8.446;2023-06-19T09:27:33;6.53;;;3.95;;
81026;SDS011;70506;49.320;8.446;2023-06-19T09:29:59;5.40;;;4.18;;
81026;SDS011;70506;49.320;8.446;2023-06-19T09:32:26;5.68;;;3.90;;
81026;SDS011;70506;49.320;8.446;2023-06-19T09:34:54;9.57;;;4.43;;
81026;SDS011;70506;49.320;8.446;2023-06-19T09:37:27;9.50;;;4.10;;
81026;SDS011;70506;49.320;8.446;2023-06-19T09:39:56;6.55;;;4.40;;
81026;SDS011;70506;49.320;8.446;2023-06-19T09:42:27;5.72;;;3.88;;
81026;SDS011;70506;49.320;8.446;2023-06-19T09:45:02;5.65;;;3.97;;
81026;SDS011;70506;49.320;8.446;2023-06-19T09:47:36;6.82;;;4.60;;
81026;SDS011;70506;49.320;8.446;2023-06-19T09:50:04;6.10;;;4.10;;
81026;SDS011;70506;49.320;8.446;2023-06-19T09:52:31;5.68;;;4.20;;
81026;SDS011;70506;49.320;8.446;2023-06-19T09:54:57;6.88;;;3.88;;
81026;SDS011;70506;49.320;8.446;2023-06-19T09:57:25;4.65;;;3.65;;
81026;SDS011;70506;49.320;8.446;2023-06-19T09:59:52;5.35;;;3.53;;
81026;SDS011;70506;49.320;8.446;2023-06-19T10:02:19;5.55;;;3.60;;
81026;SDS011;70506;49.320;8.446;2023-06-19T10:04:46;5.53;;;3.85;;
81026;SDS011;70506;49.320;8.446;2023-06-19T10:07:18;6.15;;;3.40;;
81026;SDS011;70506;49.320;8.446;2023-06-19T10:12:38;5.05;;;3.30;;
81026;SDS011;70506;49.320;8.446;2023-06-19T10:17:53;5.95;;;3.78;;
81026;SDS011;70506;49.320;8.446;2023-06-19T10:20:23;7.18;;;3.50;;
81026;SDS011;70506;49.320;8.446;2023-06-19T10:22:50;5.60;;;3.28;;
81026;SDS011;70506;49.320;8.446;2023-06-19T10:25:40;4.72;;;3.40;;
81026;SDS011;70506;49.320;8.446;2023-06-19T10:28:16;6.22;;;3.80;;
81026;SDS011;70506;49.320;8.446;2023-06-19T10:30:42;4.70;;;2.90;;
81026;SDS011;70506;49.320;8.446;2023-06-19T10:33:07;4.68;;;3.33;;
81026;SDS011;70506;49.320;8.446;2023-06-19T10:35:40;6.63;;;3.33;;
81026;SDS011;70506;49.320;8.446;2023-06-19T10:38:09;6.82;;;3.30;;
81026;SDS011;70506;49.320;8.446;2023-06-19T10:40:36;6.45;;;3.42;;
81026;SDS011;70506;49.320;8.446;2023-06-19T10:43:01;6.38;;;3.40;;
81026;SDS011;70506;49.320;8.446;2023-06-19T10:45:27;6.60;;;3.22;;
81026;SDS011;70506;49.320;8.446;2023-06-19T10:47:53;7.82;;;3.75;;
81026;SDS011;70506;49.320;8.446;2023-06-19T10:50:19;3.95;;;3.25;;
81026;SDS011;70506;49.320;8.446;2023-06-19T10:52:45;7.00;;;3.15;;
81026;SDS011;70506;49.320;8.446;2023-06-19T10:55:14;5.93;;;3.55;;
81026;SDS011;70506;49.320;8.446;2023-06-19T10:57:40;4.70;;;3.28;;
81026;SDS011;70506;49.320;8.446;2023-06-19T11:00:08;6.22;;;3.45;;
81026;SDS011;70506;49.320;8.446;2023-06-19T11:02:38;4.65;;;3.20;;
81026;SDS011;70506;49.320;8.446;2023-06-19T11:05:05;4.85;;;3.10;;
81026;SDS011;70506;49.320;8.446;2023-06-19T11:07:31;6.88;;;3.17;;
81026;SDS011;70506;49.320;8.446;2023-06-19T11:09:57;6.25;;;3.20;;
81026;SDS011;70506;49.320;8.446;2023-06-19T11:12:23;3.72;;;2.95;;
81026;SDS011;70506;49.320;8.446;2023-06-19T11:14:48;4.05;;;2.80;;
81026;SDS011;70506;49.320;8.446;2023-06-19T11:17:14;3.88;;;3.00;;
81026;SDS011;70506;49.320;8.446;2023-06-19T11:19:40;8.98;;;3.70;;
81026;SDS011;70506;49.320;8.446;2023-06-19T11:22:08;5.38;;;3.10;;
81026;SDS011;70506;49.320;8.446;2023-06-19T11:24:34;6.00;;;3.83;;
81026;SDS011;70506;49.320;8.446;2023-06-19T11:26:59;4.78;;;3.10;;
81026;SDS011;70506;49.320;8.446;2023-06-19T11:29:25;4.10;;;2.80;;
81026;SDS011;70506;49.320;8.446;2023-06-19T11:31:53;5.10;;;2.72;;
81026;SDS011;70506;49.320;8.446;2023-06-19T11:34:32;3.58;;;3.00;;
81026;SDS011;70506;49.320;8.446;2023-06-19T11:36:58;5.45;;;3.17;;
81026;SDS011;70506;49.320;8.446;2023-06-19T11:39:23;4.57;;;3.07;;
81026;SDS011;70506;49.320;8.446;2023-06-19T11:41:49;3.70;;;3.08;;
81026;SDS011;70506;49.320;8.446;2023-06-19T11:44:15;3.67;;;3.05;;
81026;SDS011;70506;49.320;8.446;2023-06-19T11:46:41;4.22;;;2.95;;
81026;SDS011;70506;49.320;8.446;2023-06-19T11:49:14;6.90;;;3.35;;
81026;SDS011;70506;49.320;8.446;2023-06-19T11:51:42;4.45;;;2.85;;
81026;SDS011;70506;49.320;8.446;2023-06-19T11:54:08;4.23;;;2.90;;
81026;SDS011;70506;49.320;8.446;2023-06-19T11:56:34;3.85;;;3.00;;
81026;SDS011;70506;49.320;8.446;2023-06-19T11:59:01;4.13;;;2.95;;
81026;SDS011;70506;49.320;8.446;2023-06-19T12:01:26;4.35;;;3.10;;
81026;SDS011;70506;49.320;8.446;2023-06-19T12:03:51;3.97;;;2.87;;
81026;SDS011;70506;49.320;8.446;2023-06-19T12:06:17;7.10;;;2.95;;
81026;SDS011;70506;49.320;8.446;2023-06-19T12:08:43;4.22;;;3.17;;
81026;SDS011;70506;49.320;8.446;2023-06-19T12:11:08;4.38;;;2.90;;
81026;SDS011;70506;49.320;8.446;2023-06-19T12:13:35;4.85;;;3.05;;
81026;SDS011;70506;49.320;8.446;2023-06-19T12:16:00;5.10;;;2.55;;
81026;SDS011;70506;49.320;8.446;2023-06-19T12:18:26;3.55;;;2.80;;
81026;SDS011;70506;49.320;8.446;2023-06-19T12:20:51;3.70;;;2.70;;
81026;SDS011;70506;49.320;8.446;2023-06-19T12:23:16;4.47;;;2.80;;
81026;SDS011;70506;49.320;8.446;2023-06-19T12:25:41;5.17;;;2.90;;
81026;SDS011;70506;49.320;8.446;2023-06-19T12:28:07;3.90;;;2.90;;
81026;SDS011;70506;49.320;8.446;2023-06-19T12:30:33;3.83;;;2.92;;
81026;SDS011;70506;49.320;8.446;2023-06-19T12:32:59;4.82;;;3.10;;
81026;SDS011;70506;49.320;8.446;2023-06-19T12:35:24;6.03;;;3.10;;
81026;SDS011;70506;49.320;8.446;2023-06-19T12:37:51;4.82;;;2.95;;
81026;SDS011;70506;49.320;8.446;2023-06-19T12:40:16;3.67;;;2.97;;
81026;SDS011;70506;49.320;8.446;2023-06-19T12:42:42;4.55;;;3.00;;
81026;SDS011;70506;49.320;8.446;2023-06-19T12:45:08;3.40;;;2.70;;
81026;SDS011;70506;49.320;8.446;2023-06-19T12:47:34;3.13;;;2.80;;
81026;SDS011;70506;49.320;8.446;2023-06-19T12:50:00;7.10;;;3.17;;
81026;SDS011;70506;49.320;8.446;2023-06-19T12:52:25;3.80;;;2.97;;
81026;SDS011;70506;49.320;8.446;2023-06-19T12:54:50;3.25;;;2.90;;
81026;SDS011;70506;49.320;8.446;2023-06-19T12:57:15;5.57;;;3.23;;
81026;SDS011;70506;49.320;8.446;2023-06-19T12:59:41;4.30;;;2.95;;
81026;SDS011;70506;49.320;8.446;2023-06-19T13:02:06;4.70;;;3.20;;
81026;SDS011;70506;49.320;8.446;2023-06-19T13:04:32;4.07;;;2.87;;
81026;SDS011;70506;49.320;8.446;2023-06-19T13:06:57;3.17;;;2.77;;
81026;SDS011;70506;49.320;8.446;2023-06-19T13:09:23;3.43;;;3.03;;
81026;SDS011;70506;49.320;8.446;2023-06-19T13:11:48;4.20;;;3.08;;
81026;SDS011;70506;49.320;8.446;2023-06-19T13:14:14;5.22;;;2.90;;
81026;SDS011;70506;49.320;8.446;2023-06-19T13:16:40;5.32;;;3.10;;
81026;SDS011;70506;49.320;8.446;2023-06-19T13:19:05;4.18;;;2.85;;
81026;SDS011;70506;49.320;8.446;2023-06-19T13:21:30;3.60;;;2.60;;
81026;SDS011;70506;49.320;8.446;2023-06-19T13:23:56;3.37;;;2.83;;
81026;SDS011;70506;49.320;8.446;2023-06-19T13:26:21;3.97;;;2.87;;
81026;SDS011;70506;49.320;8.446;2023-06-19T13:28:46;6.55;;;3.10;;
81026;SDS011;70506;49.320;8.446;2023-06-19T13:31:12;4.80;;;2.70;;
81026;SDS011;70506;49.320;8.446;2023-06-19T13:33:37;3.30;;;2.60;;
81026;SDS011;70506;49.320;8.446;2023-06-19T13:36:02;3.30;;;3.00;;
81026;SDS011;70506;49.320;8.446;2023-06-19T13:38:28;3.90;;;2.67;;
81026;SDS011;70506;49.320;8.446;2023-06-19T13:40:53;5.87;;;2.60;;
81026;SDS011;70506;49.320;8.446;2023-06-19T13:43:18;5.00;;;2.90;;
81026;SDS011;70506;49.320;8.446;2023-06-19T13:45:45;6.10;;;3.08;;
81026;SDS011;70506;49.320;8.446;2023-06-19T13:48:10;4.28;;;3.03;;
81026;SDS011;70506;49.320;8.446;2023-06-19T13:50:35;4.57;;;3.20;;
81026;SDS011;70506;49.320;8.446;2023-06-19T13:53:01;4.00;;;3.27;;
81026;SDS011;70506;49.320;8.446;2023-06-19T13:55:26;5.45;;;3.05;;
81026;SDS011;70506;49.320;8.446;2023-06-19T13:57:52;5.93;;;3.08;;
81026;SDS011;70506;49.320;8.446;2023-06-19T14:00:19;6.50;;;3.30;;
81026;SDS011;70506;49.320;8.446;2023-06-19T14:02:45;6.80;;;3.38;;
81026;SDS011;70506;49.320;8.446;2023-06-19T14:05:10;5.63;;;3.20;;
81026;SDS011;70506;49.320;8.446;2023-06-19T14:07:36;4.88;;;2.95;;
81026;SDS011;70506;49.320;8.446;2023-06-19T14:10:02;5.70;;;3.22;;
81026;SDS011;70506;49.320;8.446;2023-06-19T14:12:28;5.18;;;3.50;;
81026;SDS011;70506;49.320;8.446;2023-06-19T14:14:54;6.43;;;3.17;;
81026;SDS011;70506;49.320;8.446;2023-06-19T14:17:20;7.13;;;3.40;;
81026;SDS011;70506;49.320;8.446;2023-06-19T14:19:46;5.28;;;2.75;;
81026;SDS011;70506;49.320;8.446;2023-06-19T14:22:11;4.87;;;3.00;;
81026;SDS011;70506;49.320;8.446;2023-06-19T14:24:36;4.27;;;2.87;;
81026;SDS011;70506;49.320;8.446;2023-06-19T14:27:02;4.97;;;3.00;;
81026;SDS011;70506;49.320;8.446;2023-06-19T14:29:27;4.35;;;3.15;;
81026;SDS011;70506;49.320;8.446;2023-06-19T14:31:52;7.20;;;3.37;;
81026;SDS011;70506;49.320;8.446;2023-06-19T14:34:21;4.38;;;3.08;;
81026;SDS011;70506;49.320;8.446;2023-06-19T14:36:46;3.75;;;2.90;;
81026;SDS011;70506;49.320;8.446;2023-06-19T14:39:12;3.05;;;2.75;;
81026;SDS011;70506;49.320;8.446;2023-06-19T14:41:37;8.07;;;3.08;;
81026;SDS011;70506;49.320;8.446;2023-06-19T14:44:04;3.47;;;2.80;;
81026;SDS011;70506;49.320;8.446;2023-06-19T14:46:30;3.80;;;3.00;;
81026;SDS011;70506;49.320;8.446;2023-06-19T14:48:56;4.78;;;2.78;;
81026;SDS011;70506;49.320;8.446;2023-06-19T14:51:23;4.90;;;2.92;;
81026;SDS011;70506;49.320;8.446;2023-06-19T14:53:49;3.80;;;3.00;;
81026;SDS011;70506;49.320;8.446;2023-06-19T14:56:14;3.33;;;2.53;;
81026;SDS011;70506;49.320;8.446;2023-06-19T14:58:40;5.10;;;3.20;;
81026;SDS011;70506;49.320;8.446;2023-06-19T15:01:05;4.75;;;3.30;;
81026;SDS011;70506;49.320;8.446;2023-06-19T15:03:30;4.13;;;2.77;;
81026;SDS011;70506;49.320;8.446;2023-06-19T15:05:56;4.55;;;3.50;;
81026;SDS011;70506;49.320;8.446;2023-06-19T15:08:21;4.87;;;2.80;;
81026;SDS011;70506;49.320;8.446;2023-06-19T15:10:49;6.53;;;2.80;;
81026;SDS011;70506;49.320;8.446;2023-06-19T15:13:14;5.50;;;2.78;;
81026;SDS011;70506;49.320;8.446;2023-06-19T15:15:41;3.95;;;3.00;;
81026;SDS011;70506;49.320;8.446;2023-06-19T15:18:06;5.05;;;3.13;;
81026;SDS011;70506;49.320;8.446;2023-06-19T15:20:32;5.63;;;3.08;;
81026;SDS011;70506;49.320;8.446;2023-06-19T15:22:57;4.95;;;3.30;;
81026;SDS011;70506;49.320;8.446;2023-06-19T15:25:23;3.93;;;3.10;;
81026;SDS011;70506;49.320;8.446;2023-06-19T15:27:48;6.03;;;3.30;;
81026;SDS011;70506;49.320;8.446;2023-06-19T15:30:13;3.33;;;2.90;;
81026;SDS011;70506;49.320;8.446;2023-06-19T15:32:38;5.53;;;3.03;;